createdAt,value
2019-05-15T00:02:01.726Z,71.50
2019-05-15T00:04:31.297Z,72.00
2019-05-15T00:07:01.064Z,72.40
2019-05-15T00:09:30.842Z,72.40
2019-05-15T00:12:00.522Z,72.40
2019-05-15T00:14:30.981Z,72.10
2019-05-15T00:17:01.562Z,72.10
2019-05-15T00:19:31.400Z,72.10
2019-05-15T00:22:01.561Z,71.40
2019-05-15T00:24:32.508Z,70.90
2019-05-15T00:27:02.479Z,71.20
2019-05-15T00:29:32.136Z,72.10
2019-05-15T00:32:01.905Z,72.10
2019-05-15T00:34:31.791Z,72.10
2019-05-15T00:37:02.046Z,73.20
2019-05-15T00:39:31.772Z,73.00
2019-05-15T00:42:01.643Z,72.80
2019-05-15T00:44:32.495Z,73.20
2019-05-15T00:47:02.550Z,73.10
2019-05-15T00:49:32.197Z,72.70
2019-05-15T00:52:02.042Z,72.70
2019-05-15T00:54:31.820Z,71.90
2019-05-15T00:57:01.558Z,72.30
2019-05-15T00:59:31.708Z,72.80
2019-05-15T01:02:01.783Z,73.20
2019-05-15T01:04:31.490Z,73.50
2019-05-15T01:07:01.437Z,73.40
2019-05-15T01:09:31.076Z,73.00
2019-05-15T01:12:00.798Z,72.70
2019-05-15T01:14:31.334Z,73.20
2019-05-15T01:17:01.887Z,73.90
2019-05-15T01:19:31.529Z,74.60
2019-05-15T01:22:01.263Z,74.70
2019-05-15T01:24:30.991Z,73.60
2019-05-15T01:27:01.302Z,73.10
2019-05-15T01:29:41.947Z,73.30
2019-05-15T01:32:03.363Z,73.50
2019-05-15T01:34:33.186Z,73.70
2019-05-15T01:37:02.634Z,73.90
2019-05-15T01:39:32.439Z,74.10
2019-05-15T01:42:01.994Z,74.40
2019-05-15T01:44:31.519Z,74.60
2019-05-15T01:47:01.234Z,74.60
2019-05-15T01:49:30.923Z,74.10
2019-05-15T01:52:00.370Z,74.40
2019-05-15T01:54:29.897Z,74.90
2019-05-15T01:56:59.844Z,75.60
2019-05-15T01:59:29.564Z,75.80
2019-05-15T02:01:59.323Z,75.30
2019-05-15T02:04:29.269Z,75.30
2019-05-15T02:06:59.024Z,75.00
2019-05-15T02:09:28.615Z,75.40
2019-05-15T02:11:58.540Z,75.40
2019-05-15T02:14:28.617Z,75.50
2019-05-15T02:16:59.088Z,75.40
2019-05-15T02:19:28.930Z,75.60
2019-05-15T02:21:58.595Z,75.40
2019-05-15T02:24:28.527Z,75.60
2019-05-15T02:26:58.928Z,75.40
2019-05-15T02:29:28.818Z,75.20
2019-05-15T02:31:59.354Z,75.30
2019-05-15T02:34:30.292Z,75.00
2019-05-15T02:37:00.887Z,75.20
2019-05-15T02:39:30.420Z,75.60
2019-05-15T02:42:00.520Z,75.60
2019-05-15T02:44:30.075Z,76.00
2019-05-15T02:46:59.792Z,76.10
2019-05-15T02:49:30.291Z,75.80
2019-05-15T02:52:01.933Z,75.90
2019-05-15T02:54:31.998Z,75.60
2019-05-15T02:57:01.453Z,75.40
2019-05-15T02:59:31.379Z,75.30
2019-05-15T03:02:01.266Z,75.20
2019-05-15T03:04:31.031Z,74.90
2019-05-15T03:07:00.735Z,74.90
2019-05-15T03:09:30.592Z,75.20
2019-05-15T03:12:00.353Z,75.00
2019-05-15T03:14:29.992Z,73.90
2019-05-15T03:16:59.953Z,73.80
2019-05-15T03:19:30.208Z,74.40
2019-05-15T03:22:00.187Z,75.30
2019-05-15T03:24:29.836Z,75.60
2019-05-15T03:26:59.719Z,76.00
2019-05-15T03:29:29.606Z,76.40
2019-05-15T03:32:14.376Z,76.40
2019-05-15T03:34:38.233Z,76.50
2019-05-15T03:37:03.977Z,75.90
2019-05-15T03:39:33.974Z,75.90
2019-05-15T03:42:03.571Z,76.40
2019-05-15T03:44:33.403Z,76.50
2019-05-15T03:47:04.003Z,76.00
2019-05-15T03:49:33.929Z,76.30
2019-05-15T03:52:03.522Z,76.50
2019-05-15T03:54:33.687Z,76.20
2019-05-15T03:57:04.318Z,76.50
2019-05-15T03:59:34.278Z,75.80
2019-05-15T04:02:04.867Z,74.60
2019-05-15T04:04:34.879Z,74.50
2019-05-15T04:07:04.781Z,75.10
2019-05-15T04:09:34.697Z,75.00
2019-05-15T04:12:04.393Z,75.20
2019-05-15T04:14:33.887Z,75.60
2019-05-15T04:17:03.466Z,75.80
2019-05-15T04:19:33.105Z,75.90
2019-05-15T04:22:02.797Z,76.00
2019-05-15T04:24:33.571Z,76.20
2019-05-15T04:27:07.178Z,76.40
2019-05-15T04:29:35.415Z,76.70
2019-05-15T04:32:06.170Z,76.70
2019-05-15T04:34:36.063Z,75.80
2019-05-15T04:37:05.696Z,74.90
2019-05-15T04:39:35.256Z,73.70
2019-05-15T04:42:08.100Z,73.20
2019-05-15T04:44:39.547Z,73.30
2019-05-15T04:47:09.679Z,74.60
2019-05-15T04:49:40.815Z,75.30
2019-05-15T04:52:10.702Z,75.90
2019-05-15T04:54:40.672Z,76.20
2019-05-15T04:57:10.354Z,76.50
2019-05-15T04:59:39.910Z,76.60
2019-05-15T05:02:26.082Z,76.30
2019-05-15T05:04:40.947Z,76.10
2019-05-15T05:07:11.161Z,75.90
2019-05-15T05:09:41.107Z,74.90
2019-05-15T05:12:10.605Z,74.70
2019-05-15T05:14:40.123Z,74.00
2019-05-15T05:17:09.827Z,73.70
2019-05-15T05:19:40.125Z,73.10
2019-05-15T05:22:10.389Z,73.10
2019-05-15T05:24:40.030Z,72.60
2019-05-15T05:27:09.988Z,72.90
2019-05-15T05:29:40.003Z,73.60
2019-05-15T05:32:09.735Z,73.70
2019-05-15T05:34:41.125Z,73.60
2019-05-15T05:37:11.491Z,73.40
2019-05-15T05:39:41.149Z,72.70
2019-05-15T05:42:10.791Z,70.40
2019-05-15T05:44:42.655Z,71.00
2019-05-15T05:47:12.297Z,70.70
2019-05-15T05:49:41.839Z,69.70
2019-05-15T05:52:11.750Z,69.90
2019-05-15T05:54:41.396Z,69.40
2019-05-15T05:57:11.152Z,69.20
2019-05-15T05:59:41.101Z,66.90
2019-05-15T06:02:10.740Z,68.30
2019-05-15T06:04:40.699Z,67.00
2019-05-15T06:07:14.346Z,67.80
2019-05-15T06:09:42.808Z,65.60
2019-05-15T06:12:12.258Z,65.10
2019-05-15T06:14:42.067Z,65.90
2019-05-15T06:17:11.574Z,64.60
2019-05-15T06:19:41.211Z,61.70
2019-05-15T06:22:11.074Z,62.40
2019-05-15T06:24:40.825Z,62.00
2019-05-15T06:27:10.714Z,61.90
2019-05-15T06:29:40.450Z,62.70
2019-05-15T06:32:10.240Z,63.00
2019-05-15T06:34:40.316Z,62.40
2019-05-15T06:37:10.171Z,60.30
2019-05-15T06:39:40.355Z,57.80
2019-05-15T06:42:10.185Z,55.10
2019-05-15T06:44:39.935Z,56.10
2019-05-15T06:47:09.596Z,57.70
2019-05-15T06:49:39.327Z,57.60
2019-05-15T06:52:09.018Z,55.40
2019-05-15T06:54:39.110Z,51.00
2019-05-15T06:57:09.636Z,49.40
2019-05-15T06:59:40.442Z,49.80
2019-05-15T07:02:09.918Z,49.90
2019-05-15T07:04:40.857Z,52.70
2019-05-15T07:07:11.252Z,50.40
2019-05-15T07:09:41.083Z,48.70
2019-05-15T07:12:10.851Z,45.80
2019-05-15T07:14:40.475Z,47.40
2019-05-15T07:17:09.944Z,46.60
2019-05-15T07:19:39.703Z,45.20
2019-05-15T07:22:09.631Z,47.60
2019-05-15T07:24:39.545Z,41.50
2019-05-15T07:27:09.245Z,45.40
2019-05-15T07:29:39.158Z,41.80
2019-05-15T07:32:08.856Z,43.70
2019-05-15T07:34:38.571Z,42.70
2019-05-15T07:37:09.732Z,44.10
2019-05-15T07:39:39.830Z,37.10
2019-05-15T07:42:09.253Z,40.80
2019-05-15T07:44:39.048Z,43.40
2019-05-15T07:47:09.044Z,41.40
2019-05-15T07:49:39.068Z,38.90
2019-05-15T07:52:08.874Z,38.90
2019-05-15T07:54:38.740Z,38.30
2019-05-15T07:57:08.965Z,35.60
2019-05-15T07:59:38.939Z,36.50
2019-05-15T08:02:08.640Z,34.80
2019-05-15T08:04:38.382Z,36.90
2019-05-15T08:07:09.123Z,32.60
2019-05-15T08:09:39.271Z,33.60
2019-05-15T08:12:08.977Z,34.10
2019-05-15T08:14:38.944Z,33.80
2019-05-15T08:17:08.730Z,32.20
2019-05-15T08:19:38.596Z,33.50
2019-05-15T08:22:09.013Z,36.00
2019-05-15T08:24:39.260Z,33.60
2019-05-15T08:27:09.566Z,34.90
2019-05-15T08:29:40.566Z,31.80
2019-05-15T08:32:10.354Z,30.10
2019-05-15T08:34:40.146Z,35.90
2019-05-15T08:37:11.302Z,34.20
2019-05-15T08:39:40.972Z,35.10
2019-05-15T08:42:10.775Z,33.20
2019-05-15T08:44:40.238Z,32.10
2019-05-15T08:47:09.874Z,30.20
2019-05-15T08:49:41.116Z,29.30
2019-05-15T08:52:11.212Z,28.40
2019-05-15T08:54:41.108Z,28.50
2019-05-15T08:57:10.528Z,28.00
2019-05-15T08:59:40.275Z,29.30
2019-05-15T09:02:10.288Z,29.10
2019-05-15T09:04:40.003Z,28.10
2019-05-15T09:07:09.535Z,29.20
2019-05-15T09:09:39.576Z,28.90
2019-05-15T09:12:09.852Z,27.00
2019-05-15T09:14:39.613Z,29.80
2019-05-15T09:17:09.248Z,25.20
2019-05-15T09:19:38.911Z,29.10
2019-05-15T09:22:09.141Z,26.10
2019-05-15T09:24:39.038Z,26.60
2019-05-15T09:27:10.014Z,28.00
2019-05-15T09:29:40.318Z,27.10
2019-05-15T09:32:12.413Z,27.90
2019-05-15T09:34:50.547Z,28.50
2019-05-15T09:37:12.914Z,29.10
2019-05-15T09:39:42.559Z,27.00
2019-05-15T09:42:12.285Z,28.30
2019-05-15T09:44:42.049Z,26.30
2019-05-15T09:47:12.099Z,28.30
2019-05-15T09:49:41.797Z,25.70
2019-05-15T09:52:11.731Z,27.60
2019-05-15T09:54:41.167Z,27.70
2019-05-15T09:57:11.313Z,27.10
2019-05-15T09:59:41.679Z,25.90
2019-05-15T10:02:11.716Z,27.20
2019-05-15T10:04:41.525Z,24.30
2019-05-15T10:07:11.904Z,25.20
2019-05-15T10:09:41.580Z,27.30
2019-05-15T10:12:11.215Z,22.80
2019-05-15T10:14:40.752Z,22.70
2019-05-15T10:17:10.522Z,25.40
2019-05-15T10:19:40.190Z,25.20
2019-05-15T10:22:09.929Z,24.20
2019-05-15T10:24:39.614Z,24.00
2019-05-15T10:27:09.126Z,24.50
2019-05-15T10:29:38.892Z,24.10
2019-05-15T10:32:08.683Z,24.20
2019-05-15T10:34:38.588Z,26.00
2019-05-15T10:37:08.473Z,23.50
2019-05-15T10:39:38.525Z,23.00
2019-05-15T10:42:08.592Z,25.70
2019-05-15T10:44:39.232Z,25.80
2019-05-15T10:47:09.069Z,24.10
2019-05-15T10:49:39.102Z,24.40
2019-05-15T10:52:11.253Z,22.30
2019-05-15T10:54:40.293Z,21.00
2019-05-15T10:57:09.937Z,22.60
2019-05-15T10:59:40.642Z,21.60
2019-05-15T11:02:11.207Z,21.20
2019-05-15T11:04:40.746Z,22.40
2019-05-15T11:07:10.192Z,21.50
2019-05-15T11:09:40.575Z,22.90
2019-05-15T11:12:10.392Z,24.00
2019-05-15T11:14:40.338Z,22.50
2019-05-15T11:17:11.242Z,20.90
2019-05-15T11:19:41.097Z,23.00
2019-05-15T11:22:11.476Z,20.60
2019-05-15T11:24:41.338Z,20.40
2019-05-15T11:27:11.329Z,19.90
2019-05-15T11:29:42.026Z,18.60
2019-05-15T11:32:11.555Z,23.50
2019-05-15T11:34:41.055Z,20.90
2019-05-15T11:37:10.762Z,22.20
2019-05-15T11:39:46.090Z,21.00
2019-05-15T11:42:11.557Z,20.80
2019-05-15T11:44:41.040Z,21.80
2019-05-15T11:47:11.119Z,21.30
2019-05-15T11:49:41.148Z,21.00
2019-05-15T11:52:10.996Z,21.30
2019-05-15T11:54:40.524Z,22.30
2019-05-15T11:57:10.881Z,20.10
2019-05-15T11:59:44.726Z,21.30
2019-05-15T12:02:11.943Z,19.00
2019-05-15T12:04:41.777Z,22.20
2019-05-15T12:07:11.549Z,21.00
2019-05-15T12:09:41.264Z,21.40
2019-05-15T12:12:10.846Z,22.50
2019-05-15T12:14:40.506Z,21.70
2019-05-15T12:17:15.180Z,19.50
2019-05-15T12:19:41.946Z,18.70
2019-05-15T12:22:11.865Z,17.60
2019-05-15T12:24:41.818Z,17.80
2019-05-15T12:27:15.378Z,19.70
2019-05-15T12:29:42.807Z,20.10
2019-05-15T12:32:26.610Z,18.50
2019-05-15T12:34:44.036Z,17.20
2019-05-15T12:37:13.602Z,16.40
2019-05-15T12:39:43.064Z,20.30
2019-05-15T12:59:51.649Z,15.60
2019-05-15T13:02:21.931Z,15.60
2019-05-15T13:04:51.688Z,16.30
2019-05-15T13:07:21.940Z,17.30
2019-05-15T13:09:51.845Z,17.80
2019-05-15T13:12:21.581Z,19.20
2019-05-15T13:14:51.277Z,17.20
2019-05-15T13:17:20.996Z,17.00
2019-05-15T13:19:50.672Z,16.50
2019-05-15T13:22:24.615Z,15.40
2019-05-15T13:24:51.308Z,16.50
2019-05-15T13:27:21.441Z,14.50
2019-05-15T13:29:51.360Z,17.30
2019-05-15T13:32:21.512Z,18.60
2019-05-15T13:34:50.993Z,14.50
2019-05-15T13:37:27.116Z,14.60
2019-05-15T13:39:52.832Z,17.20
2019-05-15T13:42:22.594Z,18.80
2019-05-15T13:44:52.311Z,17.10
2019-05-15T13:47:21.995Z,13.20
2019-05-15T13:49:51.698Z,16.40
2019-05-15T13:52:21.388Z,13.90
2019-05-15T13:54:50.928Z,16.70
2019-05-15T13:57:21.741Z,16.60
2019-05-15T13:59:51.564Z,12.90
2019-05-15T14:02:22.122Z,13.10
2019-05-15T14:04:52.582Z,12.50
2019-05-15T14:07:22.348Z,14.20
2019-05-15T14:09:52.224Z,16.00
2019-05-15T14:12:21.926Z,14.50
2019-05-15T14:14:51.652Z,13.40
2019-05-15T14:17:21.358Z,13.60
2019-05-15T14:19:51.015Z,13.60
2019-05-15T14:22:20.459Z,13.60
2019-05-15T14:24:50.287Z,11.40
2019-05-15T14:27:21.457Z,15.60
2019-05-15T14:29:51.301Z,14.20
2019-05-15T14:32:34.544Z,15.10
2019-05-15T14:34:52.996Z,14.80
2019-05-15T14:37:22.703Z,14.90
2019-05-15T14:39:52.557Z,14.60
2019-05-15T14:42:22.365Z,15.20
2019-05-15T14:44:53.445Z,15.20
2019-05-15T14:47:22.893Z,12.70
2019-05-15T14:49:52.638Z,12.00
2019-05-15T14:52:22.184Z,10.70
2019-05-15T14:54:51.898Z,13.20
2019-05-15T14:57:21.589Z,15.60
2019-05-15T14:59:51.295Z,13.60
2019-05-15T15:02:22.645Z,16.50
2019-05-15T15:04:52.375Z,14.40
2019-05-15T15:07:22.259Z,14.20
2019-05-15T15:09:52.182Z,13.00
2019-05-15T15:12:22.388Z,15.60
2019-05-15T15:14:52.578Z,13.10
2019-05-15T15:17:22.422Z,13.30
2019-05-15T15:19:52.926Z,14.00
2019-05-15T15:22:23.007Z,14.40
2019-05-15T15:24:52.693Z,11.50
2019-05-15T15:27:22.142Z,12.10
2019-05-15T15:29:52.073Z,11.70
2019-05-15T15:32:22.036Z,12.60
2019-05-15T15:34:51.737Z,13.10
2019-05-15T15:37:21.388Z,12.30
2019-05-15T15:39:51.127Z,11.50
2019-05-15T15:42:21.115Z,11.10
2019-05-15T15:44:50.954Z,14.10
2019-05-15T15:47:21.902Z,11.70
2019-05-15T15:49:51.807Z,13.40
2019-05-15T15:52:22.327Z,12.40
2019-05-15T15:54:52.423Z,11.70
2019-05-15T15:57:22.259Z,12.80
2019-05-15T15:59:51.910Z,14.50
2019-05-15T16:02:21.813Z,12.70
2019-05-15T16:04:51.467Z,11.40
2019-05-15T16:07:20.916Z,13.30
2019-05-15T16:09:51.306Z,10.50
2019-05-15T16:12:20.855Z,10.60
2019-05-15T16:14:50.587Z,12.00
2019-05-15T16:17:20.250Z,11.20
2019-05-15T16:19:50.130Z,13.60
2019-05-15T16:22:20.872Z,11.40
2019-05-15T16:24:50.778Z,10.90
2019-05-15T16:27:20.514Z,11.30
2019-05-15T16:29:49.946Z,12.20
2019-05-15T16:32:21.885Z,11.30
2019-05-15T16:34:50.818Z,11.90
2019-05-15T16:37:20.359Z,11.90
2019-05-15T16:39:50.468Z,13.30
2019-05-15T16:42:19.993Z,12.50
2019-05-15T16:44:49.683Z,10.50
2019-05-15T16:47:19.631Z,10.60
2019-05-15T16:49:49.299Z,12.90
2019-05-15T16:52:19.911Z,12.70
2019-05-15T16:54:50.141Z,10.00
2019-05-15T16:57:20.078Z,10.70
2019-05-15T16:59:50.190Z,11.50
2019-05-15T17:02:19.854Z,10.00
2019-05-15T17:04:51.027Z,12.90
2019-05-15T17:07:20.763Z,11.50
2019-05-15T17:09:51.274Z,11.80
2019-05-15T17:12:20.981Z,12.60
2019-05-15T17:14:50.431Z,13.90
2019-05-15T17:17:19.991Z,14.90
2019-05-15T17:19:49.899Z,13.50
2019-05-15T17:22:20.722Z,15.60
2019-05-15T17:24:52.773Z,15.30
2019-05-15T17:27:22.502Z,14.70
2019-05-15T17:29:53.208Z,15.40
2019-05-15T17:32:23.162Z,16.10
2019-05-15T17:34:53.252Z,14.40
2019-05-15T17:37:23.167Z,16.40
2019-05-15T17:39:53.127Z,15.70
2019-05-15T17:42:22.815Z,16.00
2019-05-15T17:44:52.526Z,17.10
2019-05-15T17:47:22.636Z,15.90
2019-05-15T17:49:52.321Z,17.40
2019-05-15T17:52:22.900Z,17.10
2019-05-15T17:54:52.712Z,17.00
2019-05-15T17:57:22.426Z,16.40
2019-05-15T17:59:51.871Z,17.90
2019-05-15T18:02:21.536Z,16.90
2019-05-15T18:04:51.174Z,18.00
2019-05-15T18:07:20.690Z,19.10
2019-05-15T18:09:54.370Z,18.40
2019-05-15T18:12:22.539Z,18.70
2019-05-15T18:14:52.262Z,19.20
2019-05-15T18:17:22.006Z,18.10
2019-05-15T18:19:52.311Z,18.50
2019-05-15T18:22:21.827Z,16.90
2019-05-15T18:24:52.151Z,17.60
2019-05-15T18:27:22.222Z,21.10
2019-05-15T18:29:51.711Z,21.40
2019-05-15T18:32:21.484Z,20.70
2019-05-15T18:34:51.397Z,16.80
2019-05-15T18:37:21.253Z,19.90
2019-05-15T18:40:02.172Z,17.10
2019-05-15T18:42:22.758Z,18.10
2019-05-15T18:44:52.921Z,19.20
2019-05-15T18:47:23.208Z,19.60
2019-05-15T18:50:04.270Z,21.30
2019-05-15T18:52:23.980Z,19.10
2019-05-15T18:54:54.182Z,19.30
2019-05-15T18:57:24.174Z,19.90
2019-05-15T18:59:53.751Z,19.50
2019-05-15T19:02:23.504Z,21.70
2019-05-15T19:04:53.403Z,19.30
2019-05-15T19:07:23.158Z,20.40
2019-05-15T19:09:54.230Z,19.60
2019-05-15T19:12:24.174Z,19.30
2019-05-15T19:14:54.090Z,23.20
2019-05-15T19:17:23.881Z,19.90
2019-05-15T19:19:53.715Z,23.00
2019-05-15T19:22:23.651Z,20.90
2019-05-15T19:24:54.173Z,20.10
2019-05-15T19:27:23.835Z,21.30
2019-05-15T19:29:53.399Z,21.50
2019-05-15T19:32:23.251Z,21.70
2019-05-15T19:34:53.179Z,20.40
2019-05-15T19:37:22.951Z,22.50
2019-05-15T19:39:52.581Z,21.10
2019-05-15T19:42:22.574Z,22.20
2019-05-15T19:44:52.289Z,22.40
2019-05-15T19:47:23.546Z,23.50
2019-05-15T19:49:53.261Z,23.00
2019-05-15T19:52:22.992Z,22.20
2019-05-15T19:54:53.723Z,23.10
2019-05-15T19:57:23.821Z,23.00
2019-05-15T19:59:53.739Z,22.90
2019-05-15T20:02:23.633Z,22.90
2019-05-15T20:04:53.560Z,22.10
2019-05-15T20:07:23.253Z,22.00
2019-05-15T20:09:52.786Z,23.90
2019-05-15T20:12:22.501Z,25.00
2019-05-15T20:14:52.620Z,26.20
2019-05-15T20:17:23.367Z,26.10
2019-05-15T20:19:53.263Z,26.80
2019-05-15T20:22:23.564Z,28.00
2019-05-15T20:24:54.694Z,27.50
2019-05-15T20:27:24.612Z,25.80
2019-05-15T20:29:54.565Z,26.70
2019-05-15T20:32:24.477Z,27.70
2019-05-15T20:34:54.377Z,27.50
2019-05-15T20:37:24.508Z,29.20
2019-05-15T20:39:54.995Z,27.30
2019-05-15T20:42:24.434Z,29.10
2019-05-15T20:44:54.380Z,28.90
2019-05-15T20:47:24.254Z,30.20
2019-05-15T20:49:54.736Z,28.10
2019-05-15T20:52:24.841Z,32.10
2019-05-15T20:54:54.489Z,31.40
2019-05-15T20:57:24.369Z,31.90
2019-05-15T20:59:54.706Z,30.40
2019-05-15T21:02:25.648Z,29.40
2019-05-15T21:04:58.329Z,28.40
2019-05-15T21:07:37.906Z,29.20
2019-05-15T21:09:59.725Z,29.00
2019-05-15T21:12:29.858Z,30.80
2019-05-15T21:15:00.303Z,33.00
2019-05-15T21:17:29.742Z,32.80
2019-05-15T21:20:01.159Z,33.50
2019-05-15T21:22:31.275Z,33.90
2019-05-15T21:25:01.258Z,32.50
2019-05-15T21:27:33.114Z,35.50
2019-05-15T21:30:03.423Z,34.40
2019-05-15T21:32:33.163Z,36.30
2019-05-15T21:35:03.484Z,34.80
2019-05-15T21:37:33.212Z,31.80
2019-05-15T21:40:03.327Z,35.30
2019-05-15T21:42:33.271Z,33.90
2019-05-15T21:45:03.243Z,32.90
2019-05-15T21:47:32.843Z,36.50
2019-05-15T21:50:02.286Z,35.20
2019-05-15T21:52:31.929Z,37.10
2019-05-15T21:55:02.215Z,37.80
2019-05-15T21:57:36.457Z,38.10
2019-05-15T22:00:08.784Z,38.60
2019-05-15T22:02:38.830Z,36.40
2019-05-15T22:05:08.872Z,35.00
2019-05-15T22:07:38.983Z,37.20
2019-05-15T22:10:11.060Z,37.60
2019-05-15T22:12:41.441Z,39.10
2019-05-15T22:15:12.326Z,36.60
2019-05-15T22:17:42.663Z,35.00
2019-05-15T22:20:12.740Z,34.80
2019-05-15T22:22:42.474Z,37.30
2019-05-15T22:25:12.561Z,37.10
2019-05-15T22:27:42.182Z,38.80
2019-05-15T22:30:14.194Z,38.70
2019-05-15T22:32:44.273Z,38.60
2019-05-15T22:35:14.437Z,37.30
2019-05-15T22:37:44.061Z,40.40
2019-05-15T22:40:15.314Z,40.40
2019-05-15T22:42:45.033Z,40.40
2019-05-15T22:45:18.200Z,40.40
2019-05-15T22:47:48.247Z,39.60
2019-05-15T22:50:19.061Z,40.50
2019-05-15T22:52:49.277Z,40.70
2019-05-15T22:55:19.135Z,41.80
2019-05-15T22:57:48.655Z,41.80
2019-05-15T23:00:19.137Z,39.40
2019-05-15T23:02:49.226Z,42.50
2019-05-15T23:05:28.007Z,42.60
2019-05-15T23:07:51.588Z,43.50
2019-05-15T23:10:21.686Z,43.90
2019-05-15T23:12:51.626Z,43.60
2019-05-15T23:15:21.399Z,43.10
2019-05-15T23:17:51.431Z,44.00
2019-05-15T23:20:20.971Z,45.30
2019-05-15T23:22:50.790Z,41.20
2019-05-15T23:25:20.546Z,42.40
2019-05-15T23:27:49.980Z,46.00
2019-05-15T23:30:19.826Z,45.50
2019-05-15T23:32:50.090Z,46.70
2019-05-15T23:35:19.842Z,47.40
2019-05-15T23:37:49.878Z,48.10
2019-05-15T23:40:19.480Z,48.80
2019-05-15T23:42:49.964Z,49.10
2019-05-15T23:45:19.504Z,50.60
2019-05-15T23:47:49.555Z,50.50
2019-05-15T23:50:19.294Z,51.40
2019-05-15T23:52:49.015Z,53.00
2019-05-15T23:55:19.074Z,52.30
2019-05-15T23:57:49.024Z,53.00
